createdAt,value
2018-10-06T00:01:40.900Z,9.23
2018-10-06T00:04:10.168Z,8.40
2018-10-06T00:06:39.390Z,8.53
2018-10-06T00:09:09.036Z,8.93
2018-10-06T00:11:38.592Z,9.17
2018-10-06T00:14:07.837Z,9.40
2018-10-06T00:16:37.144Z,8.20
2018-10-06T00:19:06.721Z,8.30
2018-10-06T00:21:35.965Z,7.90
2018-10-06T00:24:05.212Z,7.93
2018-10-06T00:26:34.468Z,8.03
2018-10-06T00:29:03.713Z,8.13
2018-10-06T00:31:32.947Z,8.70
2018-10-06T00:34:02.201Z,8.37
2018-10-06T00:36:31.468Z,8.60
2018-10-06T00:39:00.812Z,7.73
2018-10-06T00:41:30.070Z,10.97
2018-10-06T00:43:59.335Z,9.23
2018-10-06T00:46:28.636Z,8.63
2018-10-06T00:48:58.075Z,7.30
2018-10-06T00:51:27.612Z,8.07
2018-10-06T00:53:56.975Z,7.37
2018-10-06T00:56:26.968Z,6.57
2018-10-06T00:58:56.217Z,8.13
2018-10-06T01:01:25.876Z,10.13
2018-10-06T01:03:55.100Z,13.67
2018-10-06T01:06:24.685Z,8.83
2018-10-06T01:08:54.112Z,7.90
2018-10-06T01:11:23.332Z,7.17
2018-10-06T01:13:52.599Z,8.70
2018-10-06T01:16:22.432Z,7.90
2018-10-06T01:18:51.691Z,7.83
2018-10-06T01:21:21.101Z,7.90
2018-10-06T01:23:50.929Z,7.83
2018-10-06T01:26:20.172Z,7.23
2018-10-06T01:28:49.409Z,7.87
2018-10-06T01:31:18.941Z,7.83
2018-10-06T01:33:48.194Z,8.10
2018-10-06T01:36:17.424Z,7.90
2018-10-06T01:38:46.900Z,8.73
2018-10-06T01:41:16.220Z,9.87
2018-10-06T01:43:45.414Z,7.50
2018-10-06T01:46:14.966Z,7.77
2018-10-06T01:48:44.189Z,8.20
2018-10-06T01:51:13.506Z,7.70
2018-10-06T01:53:42.776Z,8.80
2018-10-06T01:56:12.024Z,8.87
2018-10-06T01:58:41.541Z,7.50
2018-10-06T02:01:10.815Z,10.20
2018-10-06T02:03:40.129Z,6.73
2018-10-06T02:06:09.362Z,7.70
2018-10-06T02:08:38.880Z,8.87
2018-10-06T02:11:08.096Z,8.03
2018-10-06T02:13:37.340Z,7.73
2018-10-06T02:16:06.621Z,7.83
2018-10-06T02:18:35.939Z,8.00
2018-10-06T02:21:05.536Z,10.33
2018-10-06T02:23:34.792Z,8.43
2018-10-06T02:26:04.024Z,8.57
2018-10-06T02:28:33.431Z,9.40
2018-10-06T02:31:02.981Z,8.83
2018-10-06T02:33:32.193Z,7.70
2018-10-06T02:36:01.440Z,9.07
2018-10-06T02:38:30.693Z,15.30
2018-10-06T02:40:59.920Z,9.20
2018-10-06T02:43:29.136Z,8.33
2018-10-06T02:45:58.395Z,8.93
2018-10-06T02:48:27.873Z,8.10
2018-10-06T02:50:57.127Z,9.17
2018-10-06T02:53:26.689Z,8.30
2018-10-06T02:55:55.937Z,7.70
2018-10-06T02:58:25.372Z,8.33
2018-10-06T03:00:55.344Z,8.50
2018-10-06T03:03:24.604Z,8.60
2018-10-06T03:05:53.860Z,8.50
2018-10-06T03:08:23.138Z,7.57
2018-10-06T03:10:52.368Z,7.77
2018-10-06T03:13:21.591Z,8.30
2018-10-06T03:15:51.320Z,8.00
2018-10-06T03:18:20.536Z,8.63
2018-10-06T03:20:49.748Z,8.13
2018-10-06T03:23:19.012Z,9.03
2018-10-06T03:25:48.274Z,8.50
2018-10-06T03:28:17.500Z,8.50
2018-10-06T03:30:46.749Z,8.30
2018-10-06T03:33:15.972Z,8.17
2018-10-06T03:35:45.188Z,8.17
2018-10-06T03:38:14.724Z,8.20
2018-10-06T03:40:43.938Z,8.80
2018-10-06T03:43:13.268Z,8.13
2018-10-06T03:45:42.524Z,8.30
2018-10-06T03:48:11.737Z,7.90
2018-10-06T03:50:41.029Z,7.23
2018-10-06T03:53:10.293Z,8.97
2018-10-06T03:55:39.613Z,8.23
2018-10-06T03:58:08.840Z,9.00
2018-10-06T04:00:38.380Z,8.93
2018-10-06T04:03:08.159Z,8.07
2018-10-06T04:05:37.720Z,7.63
2018-10-06T04:08:07.077Z,8.90
2018-10-06T04:10:36.317Z,7.53
2018-10-06T04:13:06.223Z,8.80
2018-10-06T04:15:35.532Z,8.40
2018-10-06T04:18:04.796Z,8.80
2018-10-06T04:20:34.021Z,7.80
2018-10-06T04:23:03.669Z,6.87
2018-10-06T04:25:32.916Z,7.97
2018-10-06T04:28:02.165Z,8.40
2018-10-06T04:30:31.464Z,8.43
2018-10-06T04:33:00.700Z,7.87
2018-10-06T04:35:29.936Z,8.27
2018-10-06T04:37:59.200Z,9.47
2018-10-06T04:40:28.582Z,7.87
2018-10-06T04:42:57.785Z,9.03
2018-10-06T04:45:27.374Z,9.10
2018-10-06T04:47:56.601Z,8.80
2018-10-06T04:50:25.844Z,8.90
2018-10-06T04:52:55.332Z,8.07
2018-10-06T04:55:24.505Z,8.90
2018-10-06T04:57:53.736Z,9.70
2018-10-06T05:00:23.040Z,8.40
2018-10-06T05:02:52.276Z,9.13
2018-10-06T05:05:21.881Z,8.10
2018-10-06T05:07:51.400Z,8.77
2018-10-06T05:10:21.052Z,9.03
2018-10-06T05:12:50.275Z,9.60
2018-10-06T05:15:19.536Z,7.80
2018-10-06T05:17:48.764Z,8.80
2018-10-06T05:20:17.988Z,9.00
2018-10-06T05:22:47.277Z,9.40
2018-10-06T05:25:16.500Z,7.97
2018-10-06T05:27:45.725Z,8.90
2018-10-06T05:30:15.408Z,8.50
2018-10-06T05:32:44.668Z,8.37
2018-10-06T05:35:13.884Z,8.83
2018-10-06T05:37:43.132Z,8.40
2018-10-06T05:40:12.351Z,8.90
2018-10-06T05:42:41.580Z,8.77
2018-10-06T05:45:10.869Z,9.60
2018-10-06T05:47:40.145Z,8.73
2018-10-06T05:50:09.376Z,8.63
2018-10-06T05:52:38.902Z,9.03
2018-10-06T05:55:08.172Z,8.40
2018-10-06T05:57:37.616Z,9.07
2018-10-06T06:00:06.948Z,8.80
2018-10-06T06:02:36.168Z,8.93
2018-10-06T06:05:09.654Z,9.20
2018-10-06T06:07:39.313Z,8.90
2018-10-06T06:10:08.925Z,8.83
2018-10-06T06:12:38.744Z,10.00
2018-10-06T06:15:09.339Z,9.47
2018-10-06T06:17:39.504Z,9.37
2018-10-06T06:20:08.872Z,8.83
2018-10-06T06:22:38.088Z,10.50
2018-10-06T06:25:07.610Z,9.10
2018-10-06T06:27:36.856Z,8.17
2018-10-06T06:30:06.133Z,9.73
2018-10-06T06:32:35.605Z,8.97
2018-10-06T06:35:04.896Z,8.70
2018-10-06T06:37:34.129Z,8.97
2018-10-06T06:40:03.409Z,9.57
2018-10-06T06:42:32.642Z,10.27
2018-10-06T06:45:02.177Z,9.43
2018-10-06T06:47:31.444Z,9.77
2018-10-06T06:50:00.735Z,9.27
2018-10-06T06:52:30.046Z,9.87
2018-10-06T06:54:59.671Z,9.47
2018-10-06T06:57:28.862Z,9.40
2018-10-06T06:59:58.077Z,9.57
2018-10-06T07:02:27.535Z,9.07
2018-10-06T07:04:56.756Z,9.50
2018-10-06T07:07:25.992Z,10.37
2018-10-06T07:09:55.656Z,9.03
2018-10-06T07:12:24.904Z,9.87
2018-10-06T07:14:54.146Z,9.17
2018-10-06T07:17:23.638Z,10.17
2018-10-06T07:19:53.016Z,10.23
2018-10-06T07:22:22.360Z,9.17
2018-10-06T07:24:51.617Z,10.23
2018-10-06T07:27:20.894Z,9.73
2018-10-06T07:29:50.116Z,10.10
2018-10-06T07:32:19.354Z,9.70
2018-10-06T07:34:48.629Z,9.90
2018-10-06T07:37:18.192Z,10.80
2018-10-06T07:39:47.657Z,9.47
2018-10-06T07:42:16.909Z,10.73
2018-10-06T07:44:46.412Z,10.33
2018-10-06T07:47:15.684Z,10.40
2018-10-06T07:49:45.240Z,11.47
2018-10-06T07:52:14.576Z,10.10
2018-10-06T07:54:43.833Z,10.70
2018-10-06T07:57:13.087Z,10.73
2018-10-06T07:59:44.615Z,9.97
2018-10-06T08:02:14.130Z,11.17
2018-10-06T08:04:45.693Z,10.90
2018-10-06T08:07:14.986Z,11.20
2018-10-06T08:09:44.448Z,10.20
2018-10-06T08:12:19.436Z,11.60
2018-10-06T08:14:58.231Z,11.73
2018-10-06T08:17:33.314Z,11.00
2018-10-06T08:20:07.976Z,12.40
2018-10-06T08:22:42.652Z,11.03
2018-10-06T08:25:22.435Z,11.57
2018-10-06T08:27:57.172Z,13.10
2018-10-06T08:30:35.788Z,11.27
2018-10-06T08:33:11.172Z,12.80
2018-10-06T08:35:47.004Z,12.53
2018-10-06T08:38:21.683Z,12.40
2018-10-06T08:40:56.312Z,12.27
2018-10-06T08:43:30.963Z,13.70
2018-10-06T08:46:06.697Z,12.33
2018-10-06T08:48:41.398Z,13.63
2018-10-06T08:51:16.332Z,13.53
2018-10-06T08:53:51.049Z,12.93
2018-10-06T08:56:25.868Z,14.10
2018-10-06T08:59:00.725Z,13.50
2018-10-06T09:01:36.052Z,13.40
2018-10-06T09:04:11.120Z,14.00
2018-10-06T09:06:45.849Z,13.80
2018-10-06T09:09:20.524Z,13.73
2018-10-06T09:11:55.112Z,12.93
2018-10-06T09:14:30.144Z,13.87
2018-10-06T09:17:05.201Z,13.00
2018-10-06T09:19:40.580Z,13.73
2018-10-06T09:22:15.262Z,14.03
2018-10-06T09:24:49.866Z,13.67
2018-10-06T09:27:24.608Z,12.27
2018-10-06T09:29:59.659Z,12.03
2018-10-06T09:32:34.236Z,12.90
2018-10-06T09:35:09.880Z,13.13
2018-10-06T09:37:44.801Z,12.00
2018-10-06T09:40:19.651Z,12.50
2018-10-06T09:42:54.330Z,12.80
2018-10-06T09:45:29.382Z,11.30
2018-10-06T09:48:04.176Z,12.07
2018-10-06T09:50:39.832Z,12.07
2018-10-06T09:53:14.608Z,12.63
2018-10-06T09:55:49.622Z,11.87
2018-10-06T09:58:24.368Z,13.57
2018-10-06T10:01:04.533Z,11.80
2018-10-06T10:03:44.483Z,12.40
2018-10-06T10:06:20.328Z,12.40
2018-10-06T10:08:54.947Z,11.37
2018-10-06T10:11:29.782Z,12.00
2018-10-06T10:14:04.325Z,10.90
2018-10-06T10:16:39.213Z,11.27
2018-10-06T10:19:13.923Z,12.13
2018-10-06T10:21:48.952Z,11.67
2018-10-06T10:24:23.580Z,11.80
2018-10-06T10:26:58.579Z,11.30
2018-10-06T10:29:33.285Z,11.20
2018-10-06T10:32:08.745Z,10.80
2018-10-06T10:34:43.450Z,14.50
2018-10-06T10:37:18.755Z,11.30
2018-10-06T10:39:53.409Z,10.93
2018-10-06T10:42:28.267Z,10.83
2018-10-06T10:45:03.369Z,11.40
2018-10-06T10:47:38.205Z,10.40
2018-10-06T10:50:12.952Z,11.17
2018-10-06T10:52:47.997Z,12.47
2018-10-06T10:55:22.865Z,11.60
2018-10-06T10:57:57.625Z,11.60
2018-10-06T11:00:32.363Z,11.47
2018-10-06T11:03:07.166Z,10.40
2018-10-06T11:05:41.932Z,10.90
2018-10-06T11:08:17.328Z,10.40
2018-10-06T11:10:51.927Z,11.27
2018-10-06T11:13:26.700Z,9.70
2018-10-06T11:16:02.048Z,11.23
2018-10-06T11:18:37.038Z,10.33
2018-10-06T11:21:11.841Z,8.90
2018-10-06T11:23:47.473Z,9.70
2018-10-06T11:26:22.149Z,9.37
2018-10-06T11:28:56.941Z,9.57
2018-10-06T11:31:31.623Z,8.70
2018-10-06T11:34:06.360Z,8.90
2018-10-06T11:36:41.155Z,9.10
2018-10-06T11:39:16.148Z,8.77
2018-10-06T11:41:50.851Z,7.87
2018-10-06T11:44:26.875Z,7.60
2018-10-06T11:47:01.977Z,7.10
2018-10-06T11:49:37.157Z,8.43
2018-10-06T11:52:12.289Z,7.03
2018-10-06T11:54:49.332Z,6.90
2018-10-06T11:57:24.381Z,7.50
2018-10-06T11:59:59.475Z,7.10
2018-10-06T12:02:34.320Z,6.23
2018-10-06T12:05:09.588Z,7.27
2018-10-06T12:07:44.864Z,6.23
2018-10-06T12:10:20.297Z,6.60
2018-10-06T12:12:59.121Z,5.77
2018-10-06T12:15:34.974Z,5.37
2018-10-06T12:18:09.790Z,5.90
2018-10-06T12:20:45.017Z,5.77
2018-10-06T12:23:19.712Z,5.87
2018-10-06T12:25:56.906Z,6.17
2018-10-06T12:28:31.892Z,4.97
2018-10-06T12:31:07.988Z,5.00
2018-10-06T12:33:42.832Z,4.57
2018-10-06T12:36:17.921Z,5.47
2018-10-06T12:38:52.669Z,4.37
2018-10-06T12:41:27.781Z,4.23
2018-10-06T12:44:04.632Z,4.50
2018-10-06T12:46:39.708Z,4.17
2018-10-06T12:49:14.476Z,4.27
2018-10-06T12:51:49.120Z,4.00
2018-10-06T12:54:28.030Z,3.60
2018-10-06T12:57:03.532Z,3.90
2018-10-06T12:59:38.232Z,3.30
2018-10-06T13:02:12.850Z,3.20
2018-10-06T13:04:47.479Z,3.23
2018-10-06T13:07:22.642Z,3.10
2018-10-06T13:09:57.436Z,3.37
2018-10-06T13:12:33.485Z,3.57
2018-10-06T13:15:08.368Z,3.50
2018-10-06T13:17:43.195Z,3.47
2018-10-06T13:20:17.986Z,3.20
2018-10-06T13:22:52.860Z,3.20
2018-10-06T13:25:27.733Z,3.27
2018-10-06T13:28:02.701Z,2.93
2018-10-06T13:30:37.433Z,3.20
2018-10-06T13:33:13.395Z,3.03
2018-10-06T13:35:48.211Z,2.70
2018-10-06T13:38:24.608Z,2.83
2018-10-06T13:41:00.427Z,3.00
2018-10-06T13:43:35.416Z,2.70
2018-10-06T13:46:10.312Z,2.87
2018-10-06T13:48:46.152Z,3.10
2018-10-06T13:51:21.081Z,2.77
2018-10-06T13:53:56.033Z,2.73
2018-10-06T13:56:36.158Z,2.60
2018-10-06T13:59:11.242Z,2.50
2018-10-06T14:01:47.301Z,2.63
2018-10-06T14:04:22.418Z,2.30
2018-10-06T14:06:57.541Z,2.70
2018-10-06T14:09:32.389Z,2.57
2018-10-06T14:12:07.350Z,2.50
2018-10-06T14:14:42.560Z,2.47
2018-10-06T14:17:21.144Z,2.10
2018-10-06T14:19:56.340Z,1.90
2018-10-06T14:22:35.191Z,2.33
2018-10-06T14:25:10.005Z,1.77
2018-10-06T14:27:50.624Z,2.17
2018-10-06T14:30:25.592Z,1.93
2018-10-06T14:33:00.283Z,1.93
2018-10-06T14:35:37.542Z,2.03
2018-10-06T14:38:14.900Z,2.10
2018-10-06T14:40:50.158Z,2.07
2018-10-06T14:43:26.102Z,2.13
2018-10-06T14:46:04.760Z,2.10
2018-10-06T14:48:39.841Z,2.27
2018-10-06T14:51:14.605Z,2.00
2018-10-06T14:53:49.656Z,2.60
2018-10-06T14:56:24.583Z,2.33
2018-10-06T14:58:59.373Z,2.57
2018-10-06T15:01:38.340Z,2.87
2018-10-06T15:04:13.269Z,2.77
2018-10-06T15:06:52.259Z,3.03
2018-10-06T15:09:27.269Z,2.30
2018-10-06T15:12:02.108Z,3.10
2018-10-06T15:14:39.064Z,2.40
2018-10-06T15:17:15.361Z,2.33
2018-10-06T15:19:50.280Z,2.00
2018-10-06T15:22:25.147Z,2.23
2018-10-06T15:24:54.448Z,2.57
2018-10-06T15:27:24.916Z,2.37
2018-10-06T15:29:55.470Z,2.30
2018-10-06T15:32:26.052Z,2.23
2018-10-06T15:34:55.584Z,2.27
2018-10-06T15:37:24.977Z,2.20
2018-10-06T15:39:54.729Z,2.50
2018-10-06T15:42:26.072Z,2.73
2018-10-06T15:44:55.544Z,2.60
2018-10-06T15:47:24.913Z,2.73
2018-10-06T15:49:54.217Z,2.60
2018-10-06T15:52:24.915Z,2.50
2018-10-06T15:54:54.304Z,2.60
2018-10-06T15:57:23.695Z,2.50
2018-10-06T15:59:55.446Z,2.13
2018-10-06T16:02:25.299Z,2.33
2018-10-06T16:04:54.505Z,2.20
2018-10-06T16:07:24.023Z,3.10
2018-10-06T16:09:53.536Z,2.47
2018-10-06T16:12:22.846Z,2.73
2018-10-06T16:14:52.080Z,3.63
2018-10-06T16:17:23.275Z,2.90
2018-10-06T16:19:52.528Z,3.30
2018-10-06T16:22:23.045Z,3.30
2018-10-06T16:24:52.721Z,3.83
2018-10-06T16:27:24.553Z,2.70
2018-10-06T16:29:53.977Z,2.50
2018-10-06T16:32:23.200Z,2.23
2018-10-06T16:34:54.559Z,3.10
2018-10-06T16:37:24.345Z,3.27
2018-10-06T16:39:54.008Z,2.77
2018-10-06T16:42:23.295Z,2.80
2018-10-06T16:44:52.640Z,2.50
2018-10-06T16:47:22.133Z,2.70
2018-10-06T16:49:51.548Z,2.90
2018-10-06T16:52:21.329Z,2.70
2018-10-06T16:54:50.753Z,2.70
2018-10-06T16:57:20.089Z,3.30
2018-10-06T16:59:49.938Z,3.10
2018-10-06T17:02:21.435Z,3.60
2018-10-06T17:04:50.677Z,3.20
2018-10-06T17:07:20.053Z,3.50
2018-10-06T17:09:49.292Z,3.00
2018-10-06T17:12:18.714Z,3.03
2018-10-06T17:14:48.008Z,3.83
2018-10-06T17:17:17.723Z,3.30
2018-10-06T17:19:56.095Z,4.30
2018-10-06T17:22:25.842Z,3.47
2018-10-06T17:24:57.218Z,2.83
2018-10-06T17:27:26.696Z,2.90
2018-10-06T17:29:56.060Z,3.27
2018-10-06T17:32:26.604Z,4.00
2018-10-06T17:34:56.137Z,3.30
2018-10-06T17:37:25.512Z,3.80
2018-10-06T17:39:55.589Z,3.37
2018-10-06T17:42:24.835Z,4.00
2018-10-06T17:44:54.229Z,3.50
2018-10-06T17:47:23.503Z,3.60
2018-10-06T17:49:52.840Z,3.00
2018-10-06T17:52:24.260Z,2.80
2018-10-06T17:54:53.655Z,2.97
2018-10-06T17:57:22.986Z,3.60
2018-10-06T17:59:53.535Z,3.03
2018-10-06T18:02:23.044Z,3.47
2018-10-06T18:04:52.407Z,2.83
2018-10-06T18:07:21.850Z,2.83
2018-10-06T18:09:58.576Z,2.97
2018-10-06T18:12:29.020Z,3.67
2018-10-06T18:15:02.476Z,2.93
2018-10-06T18:17:32.472Z,3.40
2018-10-06T18:20:02.087Z,3.40
2018-10-06T18:22:31.240Z,3.30
2018-10-06T18:25:00.519Z,3.80
2018-10-06T18:27:29.893Z,4.00
2018-10-06T18:30:00.415Z,4.90
2018-10-06T18:32:29.884Z,5.80
2018-10-06T18:34:59.396Z,7.00
2018-10-06T18:37:28.936Z,4.90
2018-10-06T18:39:59.691Z,4.50
2018-10-06T18:42:29.318Z,5.00
2018-10-06T18:44:58.736Z,4.50
2018-10-06T18:47:28.043Z,5.30
2018-10-06T18:49:57.568Z,5.97
2018-10-06T18:52:26.939Z,6.20
2018-10-06T18:54:56.694Z,6.33
2018-10-06T18:57:25.916Z,6.40
2018-10-06T18:59:55.262Z,5.50
2018-10-06T19:02:31.506Z,5.67
2018-10-06T19:05:00.757Z,5.63
2018-10-06T19:07:29.970Z,5.10
2018-10-06T19:09:59.410Z,5.10
2018-10-06T19:12:28.876Z,5.20
2018-10-06T19:14:58.276Z,4.43
2018-10-06T19:17:27.616Z,4.50
2018-10-06T19:19:56.950Z,4.07
2018-10-06T19:22:26.464Z,4.53
2018-10-06T19:24:56.520Z,4.60
2018-10-06T19:27:26.943Z,5.10
2018-10-06T19:29:56.241Z,4.77
2018-10-06T19:32:27.900Z,5.47
2018-10-06T19:34:59.447Z,7.80
2018-10-06T19:37:28.760Z,7.13
2018-10-06T19:39:58.004Z,8.77
2018-10-06T19:42:27.304Z,7.07
2018-10-06T19:44:58.119Z,5.83
2018-10-06T19:47:27.460Z,5.73
2018-10-06T19:49:56.828Z,6.17
2018-10-06T19:52:26.068Z,6.10
2018-10-06T19:54:55.383Z,5.90
2018-10-06T19:57:24.689Z,6.53
2018-10-06T19:59:53.994Z,7.40
2018-10-06T20:02:23.284Z,6.47
2018-10-06T20:04:52.581Z,5.10
2018-10-06T20:07:22.230Z,7.13
2018-10-06T20:09:51.533Z,5.10
2018-10-06T20:12:21.178Z,5.33
2018-10-06T20:14:51.956Z,6.13
2018-10-06T20:17:21.196Z,5.53
2018-10-06T20:19:50.638Z,5.63
2018-10-06T20:22:19.868Z,5.17
2018-10-06T20:24:49.108Z,5.77
2018-10-06T20:27:19.367Z,4.70
2018-10-06T20:29:49.190Z,6.10
2018-10-06T20:32:18.580Z,6.63
2018-10-06T20:34:47.818Z,6.40
2018-10-06T20:37:18.246Z,6.80
2018-10-06T20:39:47.713Z,6.20
2018-10-06T20:42:16.960Z,7.13
2018-10-06T20:44:47.289Z,6.00
2018-10-06T20:47:16.876Z,6.97
2018-10-06T20:49:47.393Z,6.90
2018-10-06T20:52:16.821Z,5.93
2018-10-06T20:54:46.361Z,5.80
2018-10-06T20:57:15.637Z,6.23
2018-10-06T20:59:44.968Z,6.47
2018-10-06T21:02:14.394Z,6.60
2018-10-06T21:04:43.633Z,6.30
2018-10-06T21:07:12.908Z,5.87
2018-10-06T21:09:42.173Z,5.90
2018-10-06T21:12:11.427Z,6.67
2018-10-06T21:14:40.948Z,7.57
2018-10-06T21:17:12.472Z,6.20
2018-10-06T21:19:42.140Z,6.77
2018-10-06T21:22:11.681Z,7.77
2018-10-06T21:24:40.968Z,6.20
2018-10-06T21:27:10.324Z,6.70
2018-10-06T21:29:39.802Z,6.53
2018-10-06T21:32:09.570Z,5.97
2018-10-06T21:34:38.892Z,6.17
2018-10-06T21:37:09.332Z,6.77
2018-10-06T21:39:38.556Z,5.80
2018-10-06T21:42:07.863Z,5.63
2018-10-06T21:44:37.120Z,6.07
2018-10-06T21:47:06.696Z,5.93
2018-10-06T21:49:36.032Z,6.67
2018-10-06T21:52:05.276Z,7.00
2018-10-06T21:54:34.495Z,6.13
2018-10-06T21:57:03.948Z,14.57
2018-10-06T21:59:33.175Z,6.47
2018-10-06T22:02:02.396Z,6.43
2018-10-06T22:04:31.680Z,8.30
2018-10-06T22:07:00.917Z,6.00
2018-10-06T22:09:30.212Z,6.27
2018-10-06T22:11:59.480Z,5.13
2018-10-06T22:14:28.726Z,5.40
2018-10-06T22:16:57.966Z,5.37
2018-10-06T22:19:27.469Z,5.63
2018-10-06T22:21:57.600Z,7.20
2018-10-06T22:24:26.836Z,7.33
2018-10-06T22:26:57.205Z,6.63
2018-10-06T22:29:26.475Z,6.67
2018-10-06T22:31:55.716Z,5.90
2018-10-06T22:34:24.977Z,6.07
2018-10-06T22:36:54.260Z,6.17
2018-10-06T22:39:23.468Z,6.10
2018-10-06T22:41:52.900Z,6.10
2018-10-06T22:44:22.320Z,6.00
2018-10-06T22:46:51.761Z,5.97
2018-10-06T22:49:21.068Z,5.83
2018-10-06T22:51:50.703Z,6.50
2018-10-06T22:54:19.964Z,5.73
2018-10-06T22:56:49.228Z,7.63
2018-10-06T22:59:18.469Z,6.30
2018-10-06T23:01:48.296Z,7.07
2018-10-06T23:04:18.452Z,6.53
2018-10-06T23:06:47.743Z,6.63
2018-10-06T23:09:17.137Z,6.07
2018-10-06T23:11:46.397Z,6.23
2018-10-06T23:14:15.632Z,5.70
2018-10-06T23:16:45.078Z,6.23
2018-10-06T23:19:14.311Z,6.30
2018-10-06T23:21:43.616Z,6.40
2018-10-06T23:24:13.281Z,6.10
2018-10-06T23:26:42.633Z,6.17
2018-10-06T23:29:11.854Z,5.63
2018-10-06T23:31:41.150Z,5.10
2018-10-06T23:34:10.376Z,6.43
2018-10-06T23:36:39.609Z,6.27
2018-10-06T23:39:08.943Z,6.20
2018-10-06T23:41:38.204Z,6.73
2018-10-06T23:44:07.450Z,6.60
2018-10-06T23:46:36.644Z,6.30
2018-10-06T23:49:06.275Z,6.47
2018-10-06T23:51:35.459Z,6.23
2018-10-06T23:54:04.719Z,5.97
2018-10-06T23:56:33.923Z,6.80
2018-10-06T23:59:03.138Z,6.60
